Flight Track Log - Related Links

Times and Time Zones

All times are in EDT time to prevent confusion due to time zone crossing. See the USC105 flight status page for this flight to view local times or setup timezone preferences in your user account.

Time Position Orientation Groundspeed Altitude Reporting Facility
EDT Latitude Longitude Course Direction KTS MPH feet Rate Location/Type
Mon 09:55:52 PM 39.8197 -82.9219 41° Northeast 115 132 1,000  Level Indianapolis Center
Mon 09:57:59 PM 39.8694 -82.8653 41° Northeast 112 129 3,700 1,213 Climbing Indianapolis Center
Mon 09:59:00 PM 39.8944 -82.8381 40° Northeast 123 142 4,800 639 Climbing Indianapolis Center
Mon 10:00:01 PM 39.9317 -82.8125 28° Northeast 166 191 5,000 93 Climbing Indianapolis Center
Mon 10:01:09 PM 39.9800 -82.7772 29° Northeast 171 197 5,000 397 Level Indianapolis Center
Mon 10:02:02 PM 40.0194 -82.7514 27° Northeast 168 193 5,800 1,053 Climbing Indianapolis Center
Mon 10:03:03 PM 40.0542 -82.7308 24° Northeast 131 151 7,000 407 Climbing Indianapolis Center
Mon 10:04:59 PM 40.1356 -82.6719 29° Northeast 188 216 7,000 46 Level Indianapolis Center
Mon 10:05:14 PM 40.1425 -82.6631 44° Northeast 179 206 7,100  Climbing Indianapolis Center
Mon 10:06:11 PM 40.1906 -82.6314 27° Northeast 185 213 7,000  Descending Indianapolis Center
Mon 10:07:16 PM 40.2347 -82.5983 30° Northeast 185 213 7,100  Climbing Indianapolis Center
Mon 10:08:25 PM 40.2914 -82.5606 27° Northeast 185 213 7,000 -51 Descending Indianapolis Center
Mon 10:09:13 PM 40.3264 -82.5344 30° Northeast 184 212 7,000 52 Level Indianapolis Center
Mon 10:10:20 PM 40.3700 -82.5019 30° Northeast 182 209 7,100 47 Climbing Indianapolis Center
Mon 10:11:21 PM 40.4153 -82.4708 28° Northeast 183 211 7,100  Level Indianapolis Center
Mon 10:12:22 PM 40.4692 -82.4331 28° Northeast 184 212 7,100  Level Indianapolis Center
Mon 10:13:23 PM 40.5147 -82.4003 29° Northeast 185 213 7,100  Level Indianapolis Center
Mon 10:14:24 PM 40.5603 -82.3672 29° Northeast 185 213 7,100  Level Indianapolis Center
Mon 10:15:25 PM 40.6058 -82.3356 28° Northeast 183 211 7,100  Level Indianapolis Center
Mon 10:16:26 PM 40.6522 -82.3017 29° Northeast 187 215 7,100  Level Indianapolis Center
Mon 10:17:27 PM 40.6986 -82.2678 29° Northeast 188 216 7,100  Level Indianapolis Center
Mon 10:18:28 PM 40.7458 -82.2356 27° Northeast 190 219 7,100  Level Indianapolis Center
Mon 10:19:29 PM 40.7931 -82.2022 28° Northeast 189 217 7,100  Level Indianapolis Center
Mon 10:20:20 PM 40.8314 -82.1775 26° Northeast 186 214 7,100  Level Cleveland Center
Mon 10:20:50 PM 40.8525 -82.1589 34° Northeast 185 213 7,100  Level Cleveland Center
Mon 10:22:45 PM 40.9408 -82.1003 27° Northeast 184 212 7,100  Level Cleveland Center
Mon 10:23:46 PM 40.9872 -82.0658 29° Northeast 188 216 7,100  Level Cleveland Center
Mon 10:25:00 PM 41.0369 -82.0305 28° Northeast  Level FlightAware Approximate
Mon 10:25:41 PM 41.0736 -82.0044 28° Northeast 186 214 7,100  Level Cleveland Center
Mon 10:26:36 PM 41.1133 -81.9750 29° Northeast 186 214 7,100  Level Cleveland Center
Mon 10:27:36 PM 41.1597 -81.9400 30° Northeast 185 213 7,100 -45 Level Cleveland Center
Mon 10:28:49 PM 41.2064 -81.8831 43° Northeast 177 204 7,000 -429 Descending Cleveland Center
Mon 10:29:56 PM 41.2464 -81.8286 46° Northeast 198 228 6,100 -939 Descending Cleveland Center
Mon 10:30:44 PM 41.2825 -81.7878 40° Northeast 208 239 5,200 -991 Descending Cleveland Center
Mon 10:31:51 PM 41.3286 -81.7389 39° Northeast 201 231 4,200 -744 Descending Cleveland Center
Mon 10:32:45 PM 41.3689 -81.6953 39° Northeast 198 228 3,700 -522 Descending Cleveland Center
Mon 10:33:46 PM 41.4131 -81.6519 36° Northeast 186 214 3,200 -511 Descending Cleveland Center
Mon 10:35:00 PM 41.4680 -81.6685 27° Northeast  Level Estimated
Mon 10:35:53 PM 41.5114 -81.5981 27° Northeast 197 227 2,100  Level Cleveland Center
Mon 10:36:54 PM 41.5569 -81.6347 329° Northwest 196 226 1,800 -248 Descending Cleveland Center
Mon 10:37:54 PM 41.5503 -81.6958 262° West 156 180 1,600 -361 Descending Cleveland Center
Mon 10:39:07 PM 41.5125 -81.7117 197° South 115 132 1,000 -493 Descending Cleveland Center

Login

Don't have an account? Register now (free) for customized features, flight alerts, and more!